Time;durP1;ratioP1;P1;durP2;ratioP2;P2;SDS_P1;SDS_P2;PMS_P1;PMS_P2;Temp;Humidity;BMP_temperature;BMP_pressure;BME280_temperature;BME280_humidity;BME280_pressure;Samples;Min_cycle;Max_cycle;Signal;HPM_P1;HPM_P2
2022/11/16 00:01:08;;;;;;;18.00;13.40;;;10.10;99.90;;;;;;5022650;28;20045;-84
2022/11/16 00:03:34;;;;;;;20.25;13.32;;;10.20;99.90;;;;;;5051466;28;20049;-83
2022/11/16 00:06:03;;;;;;;21.48;14.77;;;10.10;99.90;;;;;;5050220;28;20530;-84
2022/11/16 00:08:34;;;;;;;21.20;13.57;;;10.20;99.90;;;;;;5031637;28;20524;-83
2022/11/16 00:11:11;;;;;;;21.90;15.23;;;10.20;99.90;;;;;;5050986;28;20049;-84
2022/11/16 00:13:38;;;;;;;23.92;15.02;;;10.20;99.90;;;;;;5032892;28;20490;-84
2022/11/16 00:16:05;;;;;;;21.92;14.63;;;10.20;99.90;;;;;;5030072;28;20053;-83
2022/11/16 00:18:31;;;;;;;22.67;15.30;;;10.20;99.90;;;;;;5026214;28;20045;-83
2022/11/16 00:20:57;;;;;;;22.58;14.55;;;10.20;99.90;;;;;;5020861;28;20037;-82
2022/11/16 00:23:23;;;;;;;18.80;14.43;;;10.20;99.90;;;;;;5029951;28;20044;-83
2022/11/16 00:25:49;;;;;;;19.70;14.23;;;10.20;99.90;;;;;;5048485;28;20498;-83
2022/11/16 00:28:15;;;;;;;23.33;14.90;;;10.20;99.90;;;;;;5042347;28;20048;-83
2022/11/16 00:30:41;;;;;;;20.65;14.38;;;10.20;99.90;;;;;;5033134;28;20044;-83
2022/11/16 00:33:07;;;;;;;22.20;14.77;;;10.20;99.90;;;;;;5012487;28;20056;-84
2022/11/16 00:35:38;;;;;;;21.95;15.30;;;10.40;99.90;;;;;;5018988;28;20045;-83
2022/11/16 00:38:04;;;;;;;21.88;15.05;;;10.30;99.90;;;;;;5045376;28;20041;-84
2022/11/16 00:40:30;;;;;;;22.40;14.60;;;10.30;99.90;;;;;;5030995;28;20045;-83
2022/11/16 00:42:55;;;;;;;20.55;14.57;;;10.30;99.90;;;;;;5019486;28;20088;-83
2022/11/16 00:45:21;;;;;;;20.88;15.48;;;10.30;99.90;;;;;;5045909;28;20795;-83
2022/11/16 00:47:47;;;;;;;21.55;14.48;;;10.60;99.90;;;;;;5032942;28;20092;-83
2022/11/16 00:50:12;;;;;;;24.23;16.40;;;10.30;99.90;;;;;;5030988;28;20076;-83
2022/11/16 00:52:38;;;;;;;24.35;16.13;;;10.10;99.90;;;;;;5029373;28;20051;-83
2022/11/16 00:55:06;;;;;;;26.15;16.17;;;10.30;99.90;;;;;;5047660;28;20045;-87
2022/11/16 00:57:32;;;;;;;25.20;17.38;;;10.40;99.90;;;;;;5016113;28;20044;-83
2022/11/16 00:59:58;;;;;;;25.42;16.52;;;10.40;99.90;;;;;;5050000;28;20044;-84
2022/11/16 01:02:23;;;;;;;22.00;15.40;;;10.40;99.90;;;;;;5050687;28;20044;-82
2022/11/16 01:04:49;;;;;;;26.17;17.25;;;10.30;99.90;;;;;;5061197;28;20418;-85
2022/11/16 01:07:15;;;;;;;26.15;17.13;;;10.20;99.90;;;;;;5034011;28;20049;-83
2022/11/16 01:09:40;;;;;;;25.80;16.48;;;10.40;99.90;;;;;;5050207;28;20061;-83
2022/11/16 01:12:08;;;;;;;24.55;15.77;;;10.40;99.90;;;;;;5031782;28;20049;-86
2022/11/16 01:14:42;;;;;;;28.05;17.52;;;10.60;99.90;;;;;;5029035;28;20045;-82
2022/11/16 01:17:08;;;;;;;23.98;16.48;;;10.50;99.90;;;;;;5022447;28;20036;-87
2022/11/16 01:19:35;;;;;;;23.98;16.52;;;10.80;99.90;;;;;;5047976;28;20049;-83
2022/11/16 01:22:01;;;;;;;21.60;15.68;;;10.70;99.90;;;;;;5045956;28;20045;-84
2022/11/16 01:24:27;;;;;;;24.60;16.75;;;10.50;99.90;;;;;;5031644;28;20102;-83
2022/11/16 01:26:57;;;;;;;25.17;16.45;;;10.40;99.90;;;;;;5016334;28;20041;-82
2022/11/16 01:29:27;;;;;;;23.00;15.30;;;10.80;99.90;;;;;;5032541;28;20040;-82
2022/11/16 01:31:53;;;;;;;28.67;17.73;;;10.50;99.90;;;;;;5032712;28;20076;-82
2022/11/16 01:34:19;;;;;;;33.33;18.75;;;10.50;99.90;;;;;;5063879;28;20425;-84
2022/11/16 01:36:45;;;;;;;24.20;16.55;;;10.50;99.90;;;;;;5044905;28;20049;-84
2022/11/16 01:39:12;;;;;;;27.60;17.65;;;10.60;99.90;;;;;;5032213;28;20059;-87
2022/11/16 01:41:38;;;;;;;23.83;17.25;;;10.60;99.90;;;;;;5017032;28;20072;-83
2022/11/16 01:44:43;;;;;;;30.33;17.52;;;10.70;99.90;;;;;;5032615;28;20059;-83
2022/11/16 01:47:11;;;;;;;25.10;16.17;;;10.70;99.90;;;;;;5036094;28;20055;-83
2022/11/16 01:49:46;;;;;;;45.70;19.20;;;10.70;99.90;;;;;;5029948;28;20099;-84
2022/11/16 01:52:17;;;;;;;26.27;17.15;;;10.70;99.90;;;;;;5032260;28;20123;-86
2022/11/16 01:54:45;;;;;;;29.45;18.45;;;10.90;99.90;;;;;;5054305;28;20386;-83
2022/11/16 01:57:16;;;;;;;27.25;16.13;;;10.60;99.90;;;;;;5031742;28;20490;-84
2022/11/16 01:59:44;;;;;;;28.70;17.23;;;10.70;99.90;;;;;;5047542;28;20085;-83
2022/11/16 02:02:10;;;;;;;27.48;15.63;;;10.70;99.90;;;;;;5046790;28;21396;-83
2022/11/16 02:04:36;;;;;;;29.52;17.77;;;10.70;99.90;;;;;;5018568;28;20037;-83
2022/11/16 02:09:52;;;;;;;29.60;18.13;;;10.80;99.90;;;;;;5032078;28;20063;-84
2022/11/16 02:11:09;;;;;;;27.67;16.77;;;10.70;99.90;;;;;;5044303;28;20053;-84
2022/11/16 02:13:49;;;;;;;31.45;17.42;;;10.70;99.90;;;;;;5046127;28;20049;-83
2022/11/16 02:16:30;;;;;;;30.00;17.58;;;10.80;99.90;;;;;;5029691;28;20041;-86
2022/11/16 02:19:10;;;;;;;28.75;17.65;;;10.70;99.90;;;;;;5039201;28;20658;-83
2022/11/16 02:22:05;;;;;;;29.52;17.15;;;10.70;99.90;;;;;;5028079;28;20616;-83
2022/11/16 02:25:03;;;;;;;30.90;17.17;;;10.60;99.90;;;;;;5042653;28;20072;-82
2022/11/16 02:27:42;;;;;;;26.48;16.52;;;10.80;99.90;;;;;;5039758;28;20053;-84
2022/11/16 02:30:08;;;;;;;32.78;17.70;;;10.80;99.90;;;;;;5048356;28;20052;-83
2022/11/16 02:33:04;;;;;;;29.63;17.30;;;10.80;99.90;;;;;;5015897;28;20053;-83
2022/11/16 02:35:39;;;;;;;26.77;16.23;;;10.60;99.90;;;;;;5055655;28;20053;-84
2022/11/16 02:38:10;;;;;;;30.60;17.33;;;10.90;99.90;;;;;;5051857;28;20127;-84
2022/11/16 02:40:38;;;;;;;34.65;18.40;;;11.30;99.90;;;;;;5052642;28;20039;-85
2022/11/16 02:43:08;;;;;;;28.13;16.95;;;10.80;99.90;;;;;;5041752;28;20532;-84
2022/11/16 02:45:38;;;;;;;25.42;16.33;;;10.80;99.90;;;;;;5046620;28;20444;-84
2022/11/16 02:48:10;;;;;;;39.88;19.75;;;10.80;99.90;;;;;;5056909;28;20052;-83
2022/11/16 02:50:37;;;;;;;26.80;16.65;;;10.80;99.90;;;;;;5032442;28;20086;-84
2022/11/16 02:53:03;;;;;;;28.48;17.52;;;10.80;99.90;;;;;;5037037;28;20049;-84
2022/11/16 02:55:32;;;;;;;31.60;17.90;;;10.90;99.90;;;;;;5032320;28;20103;-84
2022/11/16 02:58:05;;;;;;;37.67;18.92;;;11.10;99.90;;;;;;5047960;28;20074;-83
2022/11/16 03:00:57;;;;;;;25.88;16.70;;;10.80;99.90;;;;;;5043667;28;20406;-85
2022/11/16 03:03:39;;;;;;;23.20;14.70;;;10.60;99.90;;;;;;5064343;28;20060;-87
2022/11/16 03:06:15;;;;;;;29.45;17.45;;;10.60;99.90;;;;;;5058360;28;20059;-84
2022/11/16 03:08:46;;;;;;;31.20;16.63;;;10.90;99.90;;;;;;5040549;28;20073;-84
2022/11/16 03:14:19;;;;;;;33.28;17.13;;;10.80;99.90;;;;;;5050857;28;20203;-85
2022/11/16 03:16:57;;;;;;;33.72;18.27;;;10.90;99.90;;;;;;5030932;28;20053;-84
2022/11/16 03:19:35;;;;;;;30.42;17.58;;;11.00;99.90;;;;;;5044025;28;20153;-84
2022/11/16 03:22:19;;;;;;;33.33;19.48;;;10.90;99.90;;;;;;5033497;28;20059;-85
2022/11/16 03:24:45;;;;;;;29.02;17.15;;;10.70;99.90;;;;;;5041514;28;20053;-84
2022/11/16 03:27:14;;;;;;;31.25;18.45;;;10.70;99.90;;;;;;5018146;28;20036;-84
2022/11/16 03:29:44;;;;;;;30.30;18.92;;;11.20;99.90;;;;;;5041158;28;20100;-84
2022/11/16 03:32:27;;;;;;;36.03;19.13;;;10.80;99.90;;;;;;5063424;28;20041;-84
2022/11/16 03:35:05;;;;;;;37.80;19.38;;;11.00;99.90;;;;;;5033843;28;20041;-84
2022/11/16 03:37:32;;;;;;;34.28;19.05;;;10.70;99.90;;;;;;5051299;28;20049;-85
2022/11/16 03:40:00;;;;;;;38.60;19.95;;;10.90;99.90;;;;;;5015319;28;20041;-86
2022/11/16 03:42:27;;;;;;;42.13;21.23;;;10.60;99.90;;;;;;5051191;28;20076;-85
2022/11/16 03:44:54;;;;;;;38.58;19.70;;;10.80;99.90;;;;;;5030256;28;20041;-84
2022/11/16 03:47:20;;;;;;;32.78;20.00;;;10.70;99.90;;;;;;5032516;28;20057;-84
2022/11/16 03:49:46;;;;;;;50.42;23.00;;;10.70;99.90;;;;;;5049995;28;20537;-84
2022/11/16 03:52:14;;;;;;;49.15;22.42;;;10.70;99.90;;;;;;5050096;28;20045;-85
2022/11/16 03:54:40;;;;;;;48.63;23.20;;;10.80;99.90;;;;;;5033765;28;20752;-85
2022/11/16 03:57:06;;;;;;;39.05;21.75;;;11.00;99.90;;;;;;5050701;28;20044;-84
2022/11/16 03:59:32;;;;;;;44.75;23.00;;;10.80;99.90;;;;;;5035884;28;20053;-88
2022/11/16 04:01:57;;;;;;;43.90;22.67;;;11.10;99.90;;;;;;5017244;28;20058;-85
2022/11/16 04:28:12;;;;;;;51.83;23.92;;;10.60;99.90;;;;;;5031771;28;20178;-84
2022/11/16 04:29:11;;;;;;;47.63;23.30;;;10.70;99.90;;;;;;5045106;28;20049;-84
2022/11/16 04:39:49;;;;;;;47.83;24.35;;;10.80;99.90;;;;;;5050148;28;20141;-84
2022/11/16 04:42:18;;;;;;;43.47;22.67;;;10.70;99.90;;;;;;5032086;28;20120;-84
2022/11/16 04:47:29;;;;;;;45.15;23.08;;;10.80;99.90;;;;;;5063670;28;20409;-83
2022/11/16 04:49:54;;;;;;;45.00;23.33;;;10.70;99.90;;;;;;5030575;28;20061;-85
2022/11/16 04:52:20;;;;;;;47.10;24.40;;;10.70;99.90;;;;;;5049615;28;20486;-84
2022/11/16 04:54:46;;;;;;;41.78;21.85;;;10.80;99.90;;;;;;5010654;28;20088;-85
2022/11/16 04:57:11;;;;;;;50.97;24.58;;;10.60;99.90;;;;;;4991614;28;20406;-85
2022/11/16 04:59:37;;;;;;;38.67;22.00;;;10.60;99.90;;;;;;5029360;28;20470;-84
2022/11/16 05:02:09;;;;;;;44.38;23.35;;;10.70;99.90;;;;;;5024468;28;20550;-81
2022/11/16 05:04:40;;;;;;;42.50;22.90;;;10.60;99.90;;;;;;5047747;28;20163;-82
2022/11/16 05:07:09;;;;;;;47.55;23.77;;;10.80;99.90;;;;;;5033365;28;20064;-82
2022/11/16 05:09:40;;;;;;;44.00;23.45;;;10.70;99.90;;;;;;5060704;28;20049;-82
2022/11/16 05:12:06;;;;;;;44.10;22.17;;;10.60;99.90;;;;;;5033567;28;20078;-82
2022/11/16 05:14:32;;;;;;;49.92;24.50;;;10.70;99.90;;;;;;5017561;28;20045;-81
2022/11/16 05:16:57;;;;;;;46.65;24.38;;;10.80;99.90;;;;;;5017197;28;20048;-82
2022/11/16 05:22:07;;;;;;;48.83;24.33;;;10.60;99.90;;;;;;5023153;28;20111;-83
2022/11/16 05:24:33;;;;;;;67.22;26.85;;;10.70;99.90;;;;;;4989483;28;20048;-82
2022/11/16 05:27:04;;;;;;;60.83;26.95;;;10.70;99.90;;;;;;5016680;28;20466;-83
2022/11/16 05:29:30;;;;;;;67.07;28.75;;;10.70;99.90;;;;;;5050405;28;20140;-83
2022/11/16 05:31:57;;;;;;;61.10;27.83;;;10.70;99.90;;;;;;5032617;28;20136;-83
2022/11/16 05:34:22;;;;;;;44.80;23.95;;;11.00;99.90;;;;;;5042053;28;20029;-83
2022/11/16 05:36:48;;;;;;;52.85;25.20;;;10.60;99.90;;;;;;5042208;28;20052;-82
2022/11/16 05:39:14;;;;;;;57.67;26.00;;;10.70;99.90;;;;;;5039456;28;20051;-82
2022/11/16 05:41:39;;;;;;;46.13;25.00;;;10.60;99.90;;;;;;5052420;28;20057;-83
2022/11/16 05:44:05;;;;;;;54.30;25.77;;;10.90;99.90;;;;;;5044026;28;20155;-83
2022/11/16 05:46:31;;;;;;;47.55;25.48;;;10.60;99.90;;;;;;5032947;28;20063;-82
2022/11/16 05:48:56;;;;;;;60.10;27.60;;;10.90;99.90;;;;;;5012628;28;20049;-83
2022/11/16 05:51:22;;;;;;;57.08;26.17;;;10.50;99.90;;;;;;5009480;28;20034;-83
2022/11/16 05:53:48;;;;;;;58.15;27.80;;;10.60;99.90;;;;;;5056973;28;20457;-86
2022/11/16 05:56:14;;;;;;;51.20;25.73;;;10.50;99.90;;;;;;5002419;28;20053;-83
2022/11/16 05:58:42;;;;;;;63.28;28.05;;;10.60;99.90;;;;;;5040187;28;20088;-84
2022/11/16 06:01:08;;;;;;;50.67;25.58;;;10.70;99.90;;;;;;5026673;28;20081;-83
2022/11/16 06:03:37;;;;;;;70.68;29.45;;;10.70;99.90;;;;;;5015773;28;20474;-81
2022/11/16 06:06:04;;;;;;;61.50;27.58;;;10.70;99.90;;;;;;5033492;28;20060;-82
2022/11/16 06:08:30;;;;;;;68.18;29.88;;;10.50;99.90;;;;;;5052099;28;20484;-82
2022/11/16 06:10:59;;;;;;;76.25;31.05;;;10.60;99.90;;;;;;5062479;28;20060;-83
2022/11/16 06:13:25;;;;;;;94.38;33.33;;;10.60;99.90;;;;;;5026940;28;20052;-82
2022/11/16 06:15:50;;;;;;;80.35;31.67;;;10.70;99.90;;;;;;5035580;28;20478;-86
2022/11/16 06:18:16;;;;;;;70.57;28.60;;;10.50;99.90;;;;;;5070235;28;20040;-83
2022/11/16 06:20:42;;;;;;;82.95;31.23;;;10.70;99.90;;;;;;5035146;28;20390;-82
2022/11/16 06:23:07;;;;;;;55.50;27.17;;;10.60;99.90;;;;;;5040092;28;20045;-81
2022/11/16 06:25:33;;;;;;;78.57;31.65;;;10.60;99.90;;;;;;5028190;28;20041;-79
2022/11/16 06:27:59;;;;;;;80.57;31.13;;;10.70;99.90;;;;;;5032719;28;20133;-80
2022/11/16 06:30:25;;;;;;;66.35;30.10;;;10.70;99.90;;;;;;5019180;28;20084;-81
2022/11/16 06:32:51;;;;;;;71.00;30.55;;;10.70;99.90;;;;;;5041173;28;20041;-81
2022/11/16 06:35:17;;;;;;;106.03;35.47;;;10.50;99.90;;;;;;5035752;28;20044;-81
2022/11/16 06:37:42;;;;;;;76.45;29.98;;;10.60;99.90;;;;;;5020369;28;20501;-81
2022/11/16 06:40:09;;;;;;;62.40;28.45;;;10.60;99.90;;;;;;5027306;28;20058;-81
2022/11/16 06:42:35;;;;;;;78.43;30.30;;;10.60;99.90;;;;;;5050388;28;20045;-81
2022/11/16 06:45:01;;;;;;;68.53;29.23;;;10.60;99.90;;;;;;5048202;28;20040;-82
2022/11/16 06:47:26;;;;;;;81.38;32.08;;;10.70;99.90;;;;;;5030738;28;20063;-83
2022/11/16 06:49:52;;;;;;;89.30;32.92;;;10.80;99.90;;;;;;5015728;28;20359;-82
2022/11/16 06:52:17;;;;;;;73.00;30.65;;;10.70;99.90;;;;;;5030169;28;20430;-82
2022/11/16 06:54:43;;;;;;;57.45;27.92;;;10.50;99.90;;;;;;5042135;28;20037;-83
2022/11/16 06:57:09;;;;;;;68.18;29.17;;;10.50;99.90;;;;;;5028612;28;20057;-83
2022/11/16 06:59:34;;;;;;;65.38;27.73;;;10.70;99.90;;;;;;5027762;28;20513;-82
2022/11/16 07:02:00;;;;;;;53.40;26.70;;;10.90;99.90;;;;;;5030267;28;20475;-81
2022/11/16 07:04:26;;;;;;;58.58;27.02;;;10.70;99.90;;;;;;5053536;28;20049;-80
2022/11/16 07:06:51;;;;;;;70.45;29.08;;;10.50;99.90;;;;;;5016992;28;20049;-82
2022/11/16 07:09:17;;;;;;;58.30;27.30;;;10.60;99.90;;;;;;5016217;28;20042;-84
2022/11/16 07:11:43;;;;;;;66.30;28.35;;;10.70;99.90;;;;;;5017278;28;20045;-82
2022/11/16 07:14:10;;;;;;;57.35;28.55;;;10.80;99.90;;;;;;5039751;28;20048;-82
2022/11/16 07:16:36;;;;;;;86.65;30.55;;;10.50;99.90;;;;;;5052896;28;20080;-83
2022/11/16 07:19:02;;;;;;;95.72;34.10;;;10.50;99.90;;;;;;5034348;28;20103;-82
2022/11/16 07:21:28;;;;;;;96.25;33.00;;;10.90;99.90;;;;;;5033697;28;20048;-81
2022/11/16 07:23:53;;;;;;;111.07;34.00;;;10.60;99.90;;;;;;5034203;28;20103;-82
2022/11/16 07:26:19;;;;;;;83.53;31.48;;;10.70;99.90;;;;;;5029446;28;20040;-82
2022/11/16 07:28:45;;;;;;;104.75;35.80;;;10.50;99.90;;;;;;5053095;28;21877;-84
2022/11/16 07:31:12;;;;;;;89.63;34.33;;;10.80;99.90;;;;;;5036441;28;20136;-82
2022/11/16 07:33:38;;;;;;;89.38;32.95;;;10.70;99.90;;;;;;5050988;28;20045;-82
2022/11/16 07:36:07;;;;;;;98.50;36.22;;;10.50;99.90;;;;;;5055578;28;20048;-82
2022/11/16 07:38:33;;;;;;;88.22;34.50;;;10.50;99.90;;;;;;5034349;28;20080;-82
2022/11/16 07:41:00;;;;;;;78.63;33.90;;;10.70;99.90;;;;;;5057064;28;20048;-82
2022/11/16 07:43:28;;;;;;;72.95;32.60;;;10.60;99.90;;;;;;5050079;28;20084;-82
2022/11/16 07:45:57;;;;;;;116.80;38.40;;;10.40;99.90;;;;;;5059107;28;20426;-83
2022/11/16 07:48:23;;;;;;;97.57;35.30;;;10.80;99.90;;;;;;5052584;28;20049;-82
2022/11/16 07:50:49;;;;;;;81.00;32.25;;;10.60;99.90;;;;;;5015948;28;20068;-82
2022/11/16 07:53:14;;;;;;;83.15;35.38;;;10.50;99.90;;;;;;5015463;28;20475;-83
2022/11/16 07:55:40;;;;;;;84.43;34.05;;;10.60;99.90;;;;;;5020970;28;20029;-83
2022/11/16 07:58:05;;;;;;;82.57;33.17;;;10.40;99.90;;;;;;5041756;28;20097;-85
2022/11/16 08:00:31;;;;;;;101.32;36.15;;;10.40;99.90;;;;;;5010387;28;20466;-82
2022/11/16 08:02:57;;;;;;;113.10;51.60;;;10.50;99.90;;;;;;5018745;28;20049;-83
2022/11/16 08:05:22;;;;;;;89.15;43.05;;;10.60;99.90;;;;;;4993813;28;20376;-83
2022/11/16 08:07:48;;;;;;;160.18;54.60;;;10.60;99.90;;;;;;5033111;28;20060;-83
2022/11/16 08:10:14;;;;;;;113.20;40.35;;;10.40;99.90;;;;;;5021473;28;20053;-82
2022/11/16 08:12:39;;;;;;;89.47;36.70;;;10.60;99.90;;;;;;5039891;28;20505;-83
2022/11/16 08:15:06;;;;;;;95.32;34.67;;;10.80;99.90;;;;;;5023035;28;20049;-84
2022/11/16 08:17:31;;;;;;;68.90;30.27;;;10.40;99.90;;;;;;5007155;28;20032;-84
2022/11/16 08:19:57;;;;;;;117.38;37.42;;;10.50;99.90;;;;;;5055773;28;20051;-83
2022/11/16 08:22:23;;;;;;;77.13;33.30;;;10.50;99.90;;;;;;5051467;28;20048;-84
2022/11/16 08:24:49;;;;;;;92.03;36.22;;;10.50;99.90;;;;;;5034494;28;20055;-83
2022/11/16 08:27:16;;;;;;;87.22;35.03;;;10.50;99.90;;;;;;5030552;28;20139;-83
2022/11/16 08:29:42;;;;;;;98.40;34.22;;;10.40;99.90;;;;;;5032651;28;20457;-83
2022/11/16 08:32:07;;;;;;;59.58;27.58;;;10.50;99.90;;;;;;5032851;28;20127;-85
2022/11/16 08:34:33;;;;;;;57.15;26.02;;;10.50;99.90;;;;;;5016727;28;20174;-82
2022/11/16 08:36:59;;;;;;;92.57;29.58;;;10.40;99.90;;;;;;5013012;28;20041;-82
2022/11/16 08:39:24;;;;;;;45.53;23.05;;;10.60;99.90;;;;;;5042202;28;20126;-84
2022/11/16 08:41:50;;;;;;;42.25;21.25;;;10.50;99.90;;;;;;5032822;28;20045;-82
2022/11/16 08:44:16;;;;;;;64.28;26.15;;;10.50;99.90;;;;;;5033273;28;20045;-82
2022/11/16 08:46:42;;;;;;;51.40;25.80;;;10.40;99.90;;;;;;5034877;28;20445;-82
2022/11/16 08:49:08;;;;;;;77.55;32.90;;;10.40;99.90;;;;;;5033354;28;20049;-88
2022/11/16 08:51:33;;;;;;;154.38;70.03;;;10.50;99.90;;;;;;5031038;28;20059;-82
2022/11/16 08:54:00;;;;;;;148.48;71.25;;;10.70;99.90;;;;;;4988109;28;20050;-82
2022/11/16 08:56:26;;;;;;;72.68;37.88;;;10.70;99.90;;;;;;5062425;28;20044;-82
2022/11/16 08:58:53;;;;;;;75.20;38.08;;;10.50;99.90;;;;;;5030484;28;20041;-82
2022/11/16 09:01:21;;;;;;;79.95;36.53;;;11.10;99.90;;;;;;5039573;28;20040;-81
2022/11/16 09:03:47;;;;;;;77.00;33.65;;;10.80;99.90;;;;;;5044954;28;20128;-82
2022/11/16 09:06:13;;;;;;;75.45;32.60;;;10.80;99.90;;;;;;5040818;28;20562;-82
2022/11/16 09:08:41;;;;;;;79.93;34.03;;;10.80;99.90;;;;;;5017627;28;20060;-84
2022/11/16 09:11:11;;;;;;;69.55;33.25;;;11.00;99.90;;;;;;5062830;28;20088;-82
2022/11/16 09:13:37;;;;;;;66.80;32.35;;;10.90;99.90;;;;;;5049388;28;20122;-81
2022/11/16 09:16:04;;;;;;;83.25;34.80;;;11.00;99.90;;;;;;5049710;28;20493;-81
2022/11/16 09:18:30;;;;;;;93.80;37.38;;;11.10;99.90;;;;;;5048378;28;20053;-82
2022/11/16 09:20:56;;;;;;;67.68;32.90;;;11.10;99.90;;;;;;5048451;28;20047;-82
2022/11/16 09:23:22;;;;;;;92.97;37.88;;;11.30;99.90;;;;;;5030094;28;20053;-83
2022/11/16 09:25:48;;;;;;;96.75;38.67;;;11.20;99.90;;;;;;5048311;28;20091;-83
2022/11/16 09:28:15;;;;;;;90.03;37.03;;;11.30;99.90;;;;;;5030222;28;20041;-83
2022/11/16 09:30:46;;;;;;;106.80;38.92;;;11.40;99.90;;;;;;5046920;28;20084;-83
2022/11/16 09:33:12;;;;;;;88.28;37.60;;;11.60;99.90;;;;;;5028340;28;20055;-81
2022/11/16 09:35:38;;;;;;;96.55;39.28;;;11.70;99.90;;;;;;5046751;28;20040;-81
2022/11/16 09:38:04;;;;;;;103.28;39.83;;;11.60;99.90;;;;;;5016790;28;20052;-84
2022/11/16 09:40:36;;;;;;;84.10;37.97;;;11.70;99.90;;;;;;5048046;28;20413;-82
2022/11/16 09:43:10;;;;;;;99.72;37.85;;;11.80;99.90;;;;;;5044709;28;20047;-82
2022/11/16 09:45:51;;;;;;;100.13;38.08;;;11.80;99.90;;;;;;5032401;28;20729;-82
2022/11/16 09:48:21;;;;;;;98.15;37.15;;;11.80;99.90;;;;;;5031896;28;20048;-85
2022/11/16 09:50:57;;;;;;;90.13;36.55;;;12.10;99.90;;;;;;5017788;28;20575;-82
2022/11/16 09:53:39;;;;;;;85.35;35.25;;;12.00;99.90;;;;;;5048485;28;20475;-83
2022/11/16 09:56:20;;;;;;;93.85;36.95;;;11.80;99.90;;;;;;5047109;28;20406;-82
2022/11/16 09:59:01;;;;;;;65.88;31.58;;;12.00;99.90;;;;;;5037952;28;20060;-81
2022/11/16 10:01:40;;;;;;;77.53;33.97;;;11.90;99.90;;;;;;5029447;28;20051;-82
2022/11/16 10:04:08;;;;;;;68.60;31.90;;;11.90;99.90;;;;;;5031690;28;20049;-82
2022/11/16 10:07:06;;;;;;;53.38;29.20;;;11.80;99.90;;;;;;5048096;28;20048;-82
2022/11/16 10:09:34;;;;;;;69.32;31.08;;;12.00;99.90;;;;;;5025008;28;20052;-81
2022/11/16 10:12:13;;;;;;;103.63;34.47;;;11.90;99.90;;;;;;5047040;28;20822;-80
2022/11/16 10:14:38;;;;;;;73.47;31.20;;;12.30;99.90;;;;;;5045234;28;20080;-81
2022/11/16 10:17:25;;;;;;;55.47;27.83;;;12.10;99.90;;;;;;5053292;28;20080;-82
2022/11/16 10:20:16;;;;;;;54.58;26.33;;;12.10;99.90;;;;;;5033535;28;20056;-82
2022/11/16 10:22:52;;;;;;;45.70;25.00;;;12.00;99.90;;;;;;5045312;28;20490;-82
2022/11/16 10:25:21;;;;;;;47.60;25.35;;;12.10;99.90;;;;;;5050597;28;20048;-82
2022/11/16 10:28:08;;;;;;;48.90;26.83;;;11.90;99.90;;;;;;5041842;28;20068;-82
2022/11/16 10:30:45;;;;;;;52.50;26.00;;;12.00;99.90;;;;;;5050965;28;20052;-82
2022/11/16 10:33:16;;;;;;;41.50;23.23;;;11.80;99.90;;;;;;5049584;28;20089;-83
2022/11/16 10:35:44;;;;;;;48.92;24.30;;;11.90;99.90;;;;;;5039708;28;20592;-82
2022/11/16 10:38:16;;;;;;;35.40;20.42;;;11.80;99.90;;;;;;5031963;28;20044;-82
2022/11/16 10:40:45;;;;;;;39.05;22.33;;;12.20;99.90;;;;;;5015258;28;20092;-82
2022/11/16 10:43:17;;;;;;;41.17;21.88;;;11.90;99.90;;;;;;5029723;28;20056;-82
2022/11/16 10:45:52;;;;;;;31.70;19.50;;;11.90;99.90;;;;;;5035783;28;20726;-82
2022/11/16 10:48:36;;;;;;;37.08;20.85;;;11.80;99.90;;;;;;5030980;28;20051;-83
2022/11/16 10:51:03;;;;;;;34.85;18.98;;;12.10;99.90;;;;;;5027837;28;20103;-83
2022/11/16 10:53:36;;;;;;;31.73;19.20;;;11.80;99.90;;;;;;5054497;28;20119;-83
2022/11/16 10:56:36;;;;;;;32.83;19.90;;;11.90;99.90;;;;;;5053499;28;20045;-83
2022/11/16 10:59:06;;;;;;;40.80;20.27;;;11.80;99.90;;;;;;5022879;28;20383;-82
2022/11/16 11:01:42;;;;;;;31.75;18.45;;;11.80;99.90;;;;;;5002653;28;20052;-81
2022/11/16 11:04:13;;;;;;;32.17;17.70;;;11.80;99.90;;;;;;5032524;28;20037;-81
2022/11/16 11:06:39;;;;;;;24.38;16.17;;;11.50;99.90;;;;;;5045194;28;20059;-81
2022/11/16 11:09:28;;;;;;;28.80;16.52;;;11.70;99.90;;;;;;5047073;28;20421;-82
2022/11/16 11:12:39;;;;;;;27.52;15.93;;;11.80;99.90;;;;;;5026411;28;20048;-82
2022/11/16 11:15:10;;;;;;;30.55;17.95;;;11.70;99.90;;;;;;5045858;28;20048;-82
2022/11/16 11:17:46;;;;;;;23.63;15.15;;;12.10;99.90;;;;;;5030754;28;20045;-82
2022/11/16 11:20:14;;;;;;;20.88;12.75;;;12.00;99.90;;;;;;5025973;28;20048;-82
2022/11/16 11:23:01;;;;;;;14.55;9.02;;;11.90;99.90;;;;;;5034460;28;20059;-82
2022/11/16 11:25:37;;;;;;;17.70;8.82;;;11.70;99.90;;;;;;5054368;28;20135;-84
2022/11/16 11:28:25;;;;;;;19.45;9.98;;;11.50;99.90;;;;;;5046012;28;20041;-83
2022/11/16 11:31:16;;;;;;;28.73;11.35;;;11.20;99.90;;;;;;5045388;28;20857;-82
2022/11/16 11:33:50;;;;;;;19.75;10.38;;;11.30;99.90;;;;;;5028201;28;20046;-83
2022/11/16 11:36:21;;;;;;;18.20;9.00;;;11.40;99.90;;;;;;5042245;28;20045;-83
2022/11/16 11:39:05;;;;;;;19.13;9.90;;;11.10;99.90;;;;;;5030441;28;20068;-82
2022/11/16 11:41:36;;;;;;;19.00;9.30;;;;;;;;;;5057114;28;20045;-85
2022/11/16 11:44:09;;;;;;;18.30;9.02;;;;;;;;;;5047818;28;20403;-82
2022/11/16 11:46:37;;;;;;;15.68;8.23;;;;;;;;;;5030993;28;20060;-82
2022/11/16 11:49:05;;;;;;;11.98;6.88;;;;;;;;;;5026665;28;20045;-82
2022/11/16 11:51:38;;;;;;;13.90;6.30;;;;;;;;;;5028640;28;20127;-85
2022/11/16 11:54:06;;;;;;;17.38;6.60;;;;;;;;;;5033688;28;20569;-84
2022/11/16 11:56:33;;;;;;;10.52;5.85;;;;;;;;;;5035238;28;20394;-85
2022/11/16 11:58:59;;;;;;;12.57;5.70;;;;;;;;;;5049062;28;20493;-83
2022/11/16 12:01:31;;;;;;;8.88;4.90;;;;;;;;;;5029906;28;20060;-83
2022/11/16 12:04:13;;;;;;;14.68;6.55;;;;;;;;;;5040771;28;20045;-82
2022/11/16 12:06:57;;;;;;;13.70;6.03;;;;;;;;;;5044708;28;20084;-82
2022/11/16 12:09:29;;;;;;;16.05;5.60;;;;;;;;;;5033514;28;20056;-83
2022/11/16 12:11:58;;;;;;;12.60;5.15;;;;;;;;;;5047269;28;20534;-84
2022/11/16 12:14:24;;;;;;;16.08;5.72;;;;;;;;;;5031338;28;20057;-83
2022/11/16 12:17:08;;;;;;;12.02;5.32;;;;;;;;;;5031430;28;20076;-84
2022/11/16 12:19:37;;;;;;;12.57;5.00;;;;;;;;;;5049067;28;20046;-84
2022/11/16 12:22:26;;;;;;;12.63;5.43;;;;;;;;;;5032160;28;20041;-83
2022/11/16 12:25:19;;;;;;;13.70;5.45;;;11.70;99.90;;;;;;5005325;28;20057;-84
2022/11/16 12:28:11;;;;;;;12.18;4.85;;;;;;;;;;5032862;28;20044;-83
2022/11/16 12:30:43;;;;;;;8.25;3.45;;;;;;;;;;4978549;28;20145;-86
2022/11/16 12:33:30;;;;;;;9.35;3.50;;;;;;;;;;5042453;28;20062;-83
2022/11/16 12:36:01;;;;;;;9.65;3.97;;;;;;;;;;5016948;28;20660;-85
2022/11/16 12:38:46;;;;;;;12.50;3.75;;;;;;;;;;5033316;28;20053;-86
2022/11/16 12:41:30;;;;;;;10.52;3.80;;;;;;;;;;5048716;28;20060;-86
2022/11/16 12:44:01;;;;;;;11.52;3.40;;;;;;;;;;5029815;28;20129;-84
2022/11/16 12:46:33;;;;;;;14.70;4.43;;;;;;;;;;5030822;28;20052;-83
2022/11/16 12:49:11;;;;;;;17.85;4.38;;;;;;;;;;5046834;28;20052;-83
2022/11/16 12:51:46;;;;;;;22.90;6.07;;;;;;;;;;5033009;28;20367;-86
2022/11/16 12:54:15;;;;;;;17.00;5.53;;;;;;;;;;5043028;28;20123;-84
2022/11/16 12:57:04;;;;;;;13.05;3.92;;;;;;;;;;5029223;28;20337;-83
2022/11/16 12:59:40;;;;;;;11.73;4.72;;;;;;;;;;5044347;28;20057;-83
2022/11/16 13:02:21;;;;;;;10.15;3.10;;;;;;;;;;5043718;28;20457;-83
2022/11/16 13:04:49;;;;;;;18.65;3.97;;;;;;;;;;5042456;28;20060;-83
2022/11/16 13:07:22;;;;;;;12.52;3.80;;;;;;;;;;5041845;28;20061;-84
2022/11/16 13:09:55;;;;;;;15.13;3.88;;;;;;;;;;5042745;28;20057;-84
2022/11/16 13:12:22;;;;;;;18.88;3.28;;;;;;;;;;5045092;28;20395;-84
2022/11/16 13:14:50;;;;;;;13.63;3.80;;;;;;;;;;5059965;28;20491;-83
2022/11/16 13:17:31;;;;;;;14.90;3.00;;;;;;;;;;5045467;28;20037;-85
2022/11/16 13:20:05;;;;;;;13.50;3.35;;;;;;;;;;5044136;28;20099;-82
2022/11/16 13:22:32;;;;;;;13.75;3.65;;;;;;;;;;5032268;28;20064;-83
2022/11/16 13:25:02;;;;;;;10.82;3.42;;;;;;;;;;5034141;28;20077;-83
2022/11/16 13:27:35;;;;;;;14.70;3.70;;;;;;;;;;5048589;28;20045;-84
2022/11/16 13:30:14;;;;;;;10.88;2.90;;;;;;;;;;5031199;28;20886;-84
2022/11/16 13:32:43;;;;;;;15.38;3.80;;;;;;;;;;5029121;28;20518;-84
2022/11/16 13:35:16;;;;;;;14.20;4.50;;;;;;;;;;5061014;28;20036;-82
2022/11/16 13:37:47;;;;;;;11.70;3.65;;;;;;;;;;5029332;28;20049;-85
2022/11/16 13:40:33;;;;;;;12.50;3.33;;;;;;;;;;5026139;28;20049;-83